createdAt,value
2022-07-30T00:01:42.991Z,100691.22
2022-07-30T00:04:10.711Z,100692.88
2022-07-30T00:06:39.829Z,100690.78
2022-07-30T00:09:07.452Z,100683.88
2022-07-30T00:11:35.380Z,100683.59
2022-07-30T00:14:03.067Z,100675.72
2022-07-30T00:16:30.730Z,100673.47
2022-07-30T00:18:59.991Z,100669.94
2022-07-30T00:21:38.823Z,100678.19
2022-07-30T00:24:08.429Z,100677.16
2022-07-30T00:26:36.105Z,100670.09
2022-07-30T00:29:03.795Z,100674.34
2022-07-30T00:31:31.404Z,100681.59
2022-07-30T00:34:00.298Z,100680.22
2022-07-30T00:36:27.753Z,100669.06
2022-07-30T00:38:55.247Z,100665.88
2022-07-30T00:41:22.715Z,100661.78
2022-07-30T00:43:50.241Z,100667.91
2022-07-30T00:46:17.885Z,100653.97
2022-07-30T00:48:46.412Z,100652.81
2022-07-30T00:51:15.330Z,100652.69
2022-07-30T00:53:42.938Z,100643.75
2022-07-30T00:56:10.444Z,100652.06
2022-07-30T00:58:37.942Z,100649.16
2022-07-30T01:01:05.509Z,100653.25
2022-07-30T01:03:33.058Z,100644.22
2022-07-30T01:06:00.558Z,100638.16
2022-07-30T01:08:29.385Z,100641.03
2022-07-30T01:10:56.847Z,100638.44
2022-07-30T01:13:24.424Z,100639.81
2022-07-30T01:15:51.904Z,100641.56
2022-07-30T01:18:19.706Z,100647.69
2022-07-30T01:21:00.734Z,100639.00
2022-07-30T01:23:35.930Z,100640.50
2022-07-30T01:26:06.736Z,100641.94
2022-07-30T01:28:36.760Z,100639.06
2022-07-30T01:31:05.222Z,100652.94
2022-07-30T01:33:33.918Z,100651.41
2022-07-30T01:36:02.338Z,100654.78
2022-07-30T01:38:34.777Z,100656.53
2022-07-30T01:41:04.782Z,100654.69
2022-07-30T01:43:35.398Z,100663.72
2022-07-30T01:46:04.096Z,100662.06
2022-07-30T01:48:32.082Z,100664.03
2022-07-30T01:51:01.930Z,100663.34
2022-07-30T01:53:31.109Z,100662.94
2022-07-30T01:55:59.744Z,100673.00
2022-07-30T01:58:30.834Z,100673.00
2022-07-30T02:00:59.182Z,100683.63
2022-07-30T02:03:27.133Z,100686.53
2022-07-30T02:05:57.573Z,100686.31
2022-07-30T02:08:37.915Z,100682.50
2022-07-30T02:11:07.713Z,100688.38
2022-07-30T02:13:42.992Z,100685.22
2022-07-30T02:16:16.263Z,100689.56
2022-07-30T02:18:51.044Z,100690.97
2022-07-30T02:21:21.547Z,100689.56
2022-07-30T02:23:50.094Z,100693.28
2022-07-30T02:26:19.879Z,100686.09
2022-07-30T02:28:50.773Z,100691.72
2022-07-30T02:31:18.898Z,100695.16
2022-07-30T02:33:48.995Z,100693.66
2022-07-30T02:36:18.562Z,100695.53
2022-07-30T02:38:47.685Z,100708.56
2022-07-30T02:41:15.813Z,100701.44
2022-07-30T02:43:43.602Z,100702.81
2022-07-30T02:46:13.389Z,100707.44
2022-07-30T02:48:41.762Z,100710.66
2022-07-30T02:51:10.509Z,100712.06
2022-07-30T02:53:38.779Z,100712.44
2022-07-30T02:56:08.096Z,100706.78
2022-07-30T02:58:37.800Z,100715.88
2022-07-30T03:01:05.875Z,100712.72
2022-07-30T03:03:35.427Z,100717.38
2022-07-30T03:06:06.410Z,100713.50
2022-07-30T03:08:34.217Z,100708.41
2022-07-30T03:11:02.333Z,100713.44
2022-07-30T03:13:29.882Z,100717.97
2022-07-30T03:15:59.217Z,100714.56
2022-07-30T03:18:29.266Z,100712.72
2022-07-30T03:20:59.809Z,100718.50
2022-07-30T03:23:28.085Z,100720.47
2022-07-30T03:25:58.750Z,100713.50
2022-07-30T03:28:27.224Z,100728.06
2022-07-30T03:30:55.134Z,100728.00
2022-07-30T03:33:23.115Z,100723.31
2022-07-30T03:35:51.717Z,100724.66
2022-07-30T03:38:22.818Z,100723.88
2022-07-30T03:40:50.860Z,100724.19
2022-07-30T03:43:32.969Z,100731.00
2022-07-30T03:46:01.262Z,100727.78
2022-07-30T03:48:28.741Z,100726.06
2022-07-30T03:50:56.670Z,100730.56
2022-07-30T03:53:27.480Z,100728.31
2022-07-30T03:55:55.266Z,100723.50
2022-07-30T03:58:22.841Z,100730.03
2022-07-30T04:00:51.620Z,100743.22
2022-07-30T04:03:25.712Z,100745.06
2022-07-30T04:05:53.249Z,100741.72
2022-07-30T04:08:20.891Z,100750.41
2022-07-30T04:10:50.446Z,100747.78
2022-07-30T04:13:18.042Z,100743.94
2022-07-30T04:16:05.968Z,100759.59
2022-07-30T04:18:39.113Z,100753.72
2022-07-30T04:21:07.489Z,100761.78
2022-07-30T04:24:03.772Z,100754.16
2022-07-30T04:26:35.544Z,100762.75
2022-07-30T04:29:04.114Z,100767.28
2022-07-30T04:31:38.343Z,100759.16
2022-07-30T04:34:08.355Z,100767.13
2022-07-30T04:36:36.597Z,100771.88
2022-07-30T04:39:04.479Z,100779.00
2022-07-30T04:41:35.403Z,100774.78
2022-07-30T04:44:18.201Z,100787.16
2022-07-30T04:46:45.750Z,100778.22
2022-07-30T04:49:14.037Z,100789.31
2022-07-30T04:51:41.861Z,100786.50
2022-07-30T04:54:15.101Z,100795.84
2022-07-30T04:56:53.724Z,100800.06
2022-07-30T04:59:22.910Z,100802.22
2022-07-30T05:01:51.307Z,100808.47
2022-07-30T05:04:19.559Z,100816.28
2022-07-30T05:06:47.485Z,100802.41
2022-07-30T05:09:16.261Z,100810.59
2022-07-30T05:11:51.541Z,100812.41
2022-07-30T05:14:19.009Z,100816.69
2022-07-30T05:16:46.598Z,100805.25
2022-07-30T05:19:14.094Z,100816.34
2022-07-30T05:21:41.653Z,100818.59
2022-07-30T05:24:09.521Z,100812.25
2022-07-30T05:26:37.185Z,100816.25
2022-07-30T05:29:07.179Z,100815.03
2022-07-30T05:31:35.719Z,100817.28
2022-07-30T05:34:05.648Z,100819.88
2022-07-30T05:36:33.545Z,100816.47
2022-07-30T05:39:01.235Z,100813.63
2022-07-30T05:41:32.334Z,100813.97
2022-07-30T05:44:00.772Z,100817.34
2022-07-30T05:46:31.185Z,100818.22
2022-07-30T05:48:58.791Z,100826.75
2022-07-30T05:51:26.334Z,100818.94
2022-07-30T05:53:53.884Z,100813.22
2022-07-30T05:56:21.353Z,100826.38
2022-07-30T05:58:48.813Z,100813.16
2022-07-30T06:01:16.281Z,100822.81
2022-07-30T06:03:45.098Z,100815.00
2022-07-30T06:06:12.969Z,100816.94
2022-07-30T06:08:44.071Z,100820.94
2022-07-30T06:11:11.579Z,100815.66
2022-07-30T06:13:39.077Z,100818.59
2022-07-30T06:16:06.659Z,100813.69
2022-07-30T06:18:34.215Z,100820.38
2022-07-30T06:21:03.021Z,100815.81
2022-07-30T06:23:30.475Z,100818.41
2022-07-30T06:25:57.949Z,100819.31
2022-07-30T06:28:37.487Z,100811.84
2022-07-30T06:31:06.653Z,100823.22
2022-07-30T06:33:34.290Z,100821.09
2022-07-30T06:36:03.265Z,100820.69
2022-07-30T06:38:30.828Z,100823.97
2022-07-30T06:41:03.009Z,100822.03
2022-07-30T06:43:32.384Z,100819.28
2022-07-30T06:46:00.236Z,100821.19
2022-07-30T06:48:27.987Z,100821.88
2022-07-30T06:50:55.469Z,100820.97
2022-07-30T06:53:24.370Z,100827.81
2022-07-30T06:55:54.838Z,100826.44
2022-07-30T06:58:28.148Z,100826.13
2022-07-30T07:00:55.816Z,100826.22
2022-07-30T07:03:23.969Z,100834.78
2022-07-30T07:05:51.513Z,100837.44
2022-07-30T07:08:19.145Z,100841.38
2022-07-30T07:10:48.270Z,100840.16
2022-07-30T07:13:16.405Z,100833.81
2022-07-30T07:15:44.067Z,100832.72
2022-07-30T07:18:12.767Z,100837.13
2022-07-30T07:20:40.360Z,100836.25
2022-07-30T07:23:08.928Z,100834.22
2022-07-30T07:25:39.759Z,100837.09
2022-07-30T07:28:11.843Z,100830.44
2022-07-30T07:30:41.415Z,100839.66
2022-07-30T07:33:09.183Z,100837.00
2022-07-30T07:35:48.430Z,100843.25
2022-07-30T07:38:17.677Z,100840.75
2022-07-30T07:40:45.285Z,100841.00
2022-07-30T07:43:14.681Z,100834.13
2022-07-30T07:45:43.018Z,100836.75
2022-07-30T07:48:10.961Z,100835.59
2022-07-30T07:50:39.298Z,100830.53
2022-07-30T07:53:07.442Z,100837.91
2022-07-30T07:55:34.994Z,100838.03
2022-07-30T07:58:02.515Z,100838.81
2022-07-30T08:00:32.971Z,100836.00
2022-07-30T08:03:00.460Z,100837.91
2022-07-30T08:06:48.558Z,100838.81
2022-07-30T08:08:50.319Z,100842.63
2022-07-30T08:11:17.796Z,100838.47
2022-07-30T08:13:52.126Z,100840.63
2022-07-30T08:16:21.890Z,100835.28
2022-07-30T08:18:49.672Z,100833.75
2022-07-30T08:21:17.254Z,100833.88
2022-07-30T08:23:44.813Z,100838.88
2022-07-30T08:26:12.358Z,100841.91
2022-07-30T08:28:39.966Z,100840.69
2022-07-30T08:31:07.438Z,100831.06
2022-07-30T08:33:36.467Z,100830.59
2022-07-30T08:36:09.807Z,100840.13
2022-07-30T08:38:37.965Z,100840.31
2022-07-30T08:41:05.575Z,100839.34
2022-07-30T08:43:34.027Z,100841.53
2022-07-30T08:46:02.206Z,100840.44
2022-07-30T08:48:30.141Z,100843.16
2022-07-30T08:50:59.458Z,100842.66
2022-07-30T08:53:27.353Z,100835.47
2022-07-30T08:55:58.559Z,100837.22
2022-07-30T08:58:29.667Z,100844.91
2022-07-30T09:00:57.232Z,100845.25
2022-07-30T09:03:24.856Z,100836.88
2022-07-30T09:05:52.326Z,100848.03
2022-07-30T09:08:21.157Z,100838.28
2022-07-30T09:10:52.931Z,100840.47
2022-07-30T09:13:25.541Z,100847.56
2022-07-30T09:15:53.300Z,100846.44
2022-07-30T09:18:28.434Z,100843.22
2022-07-30T09:20:56.280Z,100846.50
2022-07-30T09:23:25.107Z,100844.38
2022-07-30T09:25:52.954Z,100847.16
2022-07-30T09:28:29.419Z,100846.03
2022-07-30T09:30:57.374Z,100843.09
2022-07-30T09:33:38.988Z,100839.59
2022-07-30T09:36:09.437Z,100844.78
2022-07-30T09:38:47.531Z,100839.06
2022-07-30T09:41:37.280Z,100837.16
2022-07-30T09:44:06.197Z,100846.66
2022-07-30T09:46:42.352Z,100844.97
2022-07-30T09:49:15.131Z,100842.25
2022-07-30T09:51:56.384Z,100839.81
2022-07-30T09:54:26.577Z,100845.56
2022-07-30T09:57:26.422Z,100843.41
2022-07-30T09:59:56.052Z,100841.81
2022-07-30T10:02:32.206Z,100840.16
2022-07-30T10:05:09.608Z,100841.78
2022-07-30T10:07:42.741Z,100851.84
2022-07-30T10:10:12.526Z,100850.75
2022-07-30T10:12:45.294Z,100843.41
2022-07-30T10:15:14.458Z,100845.06
2022-07-30T10:17:42.585Z,100835.53
2022-07-30T10:20:12.443Z,100844.28
2022-07-30T10:22:39.958Z,100837.78
2022-07-30T10:25:08.794Z,100836.44
2022-07-30T10:27:38.208Z,100839.94
2022-07-30T10:30:08.282Z,100836.97
2022-07-30T10:32:42.446Z,100834.50
2022-07-30T10:35:10.765Z,100839.13
2022-07-30T10:37:40.165Z,100841.00
2022-07-30T10:40:15.652Z,100829.31
2022-07-30T10:43:02.996Z,100836.38
2022-07-30T10:45:46.502Z,100827.69
2022-07-30T10:48:15.135Z,100819.78
2022-07-30T10:50:51.110Z,100823.88
2022-07-30T10:53:33.852Z,100814.59
2022-07-30T10:56:14.581Z,100819.50
2022-07-30T10:59:04.661Z,100814.84
2022-07-30T11:02:09.278Z,100819.19
2022-07-30T11:04:37.903Z,100811.78
2022-07-30T11:07:28.865Z,100815.91
2022-07-30T11:10:08.767Z,100815.09
2022-07-30T11:12:54.857Z,100804.66
2022-07-30T11:15:24.207Z,100803.22
2022-07-30T11:18:02.812Z,100805.63
2022-07-30T11:20:32.646Z,100806.97
2022-07-30T11:23:14.152Z,100814.91
2022-07-30T11:25:51.257Z,100813.78
2022-07-30T11:28:43.841Z,100785.84
2022-07-30T11:31:55.746Z,100797.06
2022-07-30T11:34:27.604Z,100789.97
2022-07-30T11:37:21.869Z,100792.69
2022-07-30T11:40:10.405Z,100795.38
2022-07-30T11:42:40.253Z,100787.09
2022-07-30T11:45:23.201Z,100792.50
2022-07-30T11:47:53.679Z,100790.44
2022-07-30T11:50:23.831Z,100795.47
2022-07-30T11:52:52.306Z,100786.38
2022-07-30T11:55:24.420Z,100787.03
2022-07-30T11:57:52.208Z,100784.53
2022-07-30T12:00:20.262Z,100790.09
2022-07-30T12:03:16.638Z,100795.06
2022-07-30T12:05:44.300Z,100798.88
2022-07-30T12:08:33.338Z,100797.59
2022-07-30T12:11:00.653Z,100790.28
2022-07-30T12:13:44.316Z,100782.78
2022-07-30T12:16:15.787Z,100780.59
2022-07-30T12:18:45.003Z,100785.16
2022-07-30T12:21:15.563Z,100783.25
2022-07-30T12:23:54.198Z,100790.88
2022-07-30T12:26:22.908Z,100782.16
2022-07-30T12:28:50.550Z,100772.22
2022-07-30T12:31:18.588Z,100775.94
2022-07-30T12:33:47.524Z,100768.00
2022-07-30T12:36:25.756Z,100763.78
2022-07-30T12:38:54.485Z,100769.41
2022-07-30T12:41:22.853Z,100780.72
2022-07-30T12:43:52.045Z,100772.69
2022-07-30T12:46:21.227Z,100764.09
2022-07-30T12:48:58.034Z,100766.91
2022-07-30T12:51:32.538Z,100771.63
2022-07-30T12:54:03.714Z,100769.34
2022-07-30T12:56:31.910Z,100765.22
2022-07-30T12:59:00.403Z,100754.91
2022-07-30T13:01:40.908Z,100764.88
2022-07-30T13:04:10.694Z,100748.19
2022-07-30T13:06:40.380Z,100760.25
2022-07-30T13:09:08.227Z,100759.94
2022-07-30T13:11:40.627Z,100757.97
2022-07-30T13:14:08.345Z,100760.94
2022-07-30T13:16:37.432Z,100748.25
2022-07-30T13:19:05.150Z,100761.16
2022-07-30T13:21:34.222Z,100754.91
2022-07-30T13:24:02.233Z,100757.13
2022-07-30T13:26:30.369Z,100763.59
2022-07-30T13:29:01.675Z,100755.41
2022-07-30T13:31:42.537Z,100761.50
2022-07-30T13:34:10.931Z,100747.44
2022-07-30T13:36:39.787Z,100755.09
2022-07-30T13:39:07.353Z,100754.03
2022-07-30T13:41:36.024Z,100761.25
2022-07-30T13:44:04.068Z,100754.16
2022-07-30T13:46:31.584Z,100740.47
2022-07-30T13:48:59.228Z,100756.88
2022-07-30T13:51:26.844Z,100757.91
2022-07-30T13:53:58.152Z,100749.16
2022-07-30T13:56:25.657Z,100740.91
2022-07-30T13:58:53.301Z,100738.75
2022-07-30T14:01:20.865Z,100741.91
2022-07-30T14:03:50.598Z,100741.00
2022-07-30T14:06:18.672Z,100743.66
2022-07-30T14:08:46.190Z,100743.31
2022-07-30T14:11:15.536Z,100738.63
2022-07-30T14:13:43.158Z,100734.84
2022-07-30T14:16:28.839Z,100734.56
2022-07-30T14:18:58.351Z,100731.84
2022-07-30T14:21:26.310Z,100731.97
2022-07-30T14:23:53.780Z,100736.97
2022-07-30T14:26:22.600Z,100738.56
2022-07-30T14:28:50.082Z,100745.47
2022-07-30T14:31:17.696Z,100727.25
2022-07-30T14:33:45.299Z,100734.69
2022-07-30T14:36:12.792Z,100733.28
2022-07-30T14:38:40.450Z,100731.94
2022-07-30T14:41:08.833Z,100734.97
2022-07-30T14:43:37.666Z,100727.34
2022-07-30T14:46:05.179Z,100737.78
2022-07-30T14:48:32.670Z,100726.94
2022-07-30T14:51:14.717Z,100740.91
2022-07-30T14:53:43.716Z,100726.47
2022-07-30T14:56:14.839Z,100735.56
2022-07-30T14:58:46.738Z,100744.53
2022-07-30T15:01:16.478Z,100741.44
2022-07-30T15:03:44.376Z,100734.72
2022-07-30T15:06:12.762Z,100735.81
2022-07-30T15:08:40.467Z,100728.94
2022-07-30T15:11:09.614Z,100747.50
2022-07-30T15:13:38.651Z,100739.81
2022-07-30T15:16:20.113Z,100738.16
2022-07-30T15:18:47.755Z,100737.47
2022-07-30T15:21:15.266Z,100732.13
2022-07-30T15:23:42.799Z,100734.72
2022-07-30T15:26:10.510Z,100740.13
2022-07-30T15:28:38.583Z,100734.56
2022-07-30T15:31:06.113Z,100736.41
2022-07-30T15:33:37.210Z,100744.38
2022-07-30T15:36:05.151Z,100735.66
2022-07-30T15:38:33.427Z,100740.34
2022-07-30T15:41:01.627Z,100745.00
2022-07-30T15:43:29.149Z,100741.22
2022-07-30T15:45:56.769Z,100739.75
2022-07-30T15:48:26.538Z,100737.31
2022-07-30T15:51:01.595Z,100748.84
2022-07-30T15:53:29.754Z,100742.78
2022-07-30T15:55:57.250Z,100750.50
2022-07-30T15:58:24.765Z,100742.72
2022-07-30T16:00:52.515Z,100746.72
2022-07-30T16:03:20.059Z,100744.97
2022-07-30T16:05:52.070Z,100739.25
2022-07-30T16:08:21.825Z,100743.81
2022-07-30T16:10:49.498Z,100744.25
2022-07-30T16:13:17.035Z,100740.06
2022-07-30T16:15:44.583Z,100738.88
2022-07-30T16:18:12.141Z,100737.72
2022-07-30T16:20:39.852Z,100739.75
2022-07-30T16:23:12.656Z,100737.72
2022-07-30T16:25:42.890Z,100727.91
2022-07-30T16:28:10.433Z,100722.00
2022-07-30T16:30:49.023Z,100727.31
2022-07-30T16:33:19.260Z,100739.66
2022-07-30T16:35:48.927Z,100731.91
2022-07-30T16:38:18.596Z,100722.69
2022-07-30T16:40:47.510Z,100731.16
2022-07-30T16:43:15.583Z,100725.22
2022-07-30T16:45:44.562Z,100737.25
2022-07-30T16:48:13.664Z,100734.38
2022-07-30T16:50:41.305Z,100724.75
2022-07-30T16:53:13.522Z,100734.72
2022-07-30T16:55:41.925Z,100727.31
2022-07-30T16:58:10.866Z,100716.13
2022-07-30T17:00:38.564Z,100732.94
2022-07-30T17:03:06.173Z,100717.72
2022-07-30T17:05:33.814Z,100721.72
2022-07-30T17:08:01.411Z,100720.06
2022-07-30T17:10:29.067Z,100722.03
2022-07-30T17:12:57.665Z,100721.81
2022-07-30T17:15:32.521Z,100723.75
2022-07-30T17:18:00.835Z,100723.69
2022-07-30T17:20:28.434Z,100724.44
2022-07-30T17:22:56.207Z,100728.16
2022-07-30T17:25:25.589Z,100727.81
2022-07-30T17:27:53.125Z,100733.91
2022-07-30T17:30:21.070Z,100747.88
2022-07-30T17:32:50.115Z,100741.97
2022-07-30T17:35:17.690Z,100742.59
2022-07-30T17:37:45.306Z,100740.97
2022-07-30T17:40:29.627Z,100744.38
2022-07-30T17:43:03.392Z,100742.97
2022-07-30T17:45:31.658Z,100742.03
2022-07-30T17:48:01.471Z,100747.75
2022-07-30T17:50:29.440Z,100744.22
2022-07-30T17:52:57.110Z,100746.84
2022-07-30T17:55:25.327Z,100744.63
2022-07-30T17:57:52.902Z,100748.41
2022-07-30T18:00:20.731Z,100753.69
2022-07-30T18:02:48.381Z,100746.97
2022-07-30T18:05:17.332Z,100755.28
2022-07-30T18:07:45.181Z,100750.97
2022-07-30T18:10:13.545Z,100762.50
2022-07-30T18:12:48.677Z,100753.84
2022-07-30T18:15:17.133Z,100758.31
2022-07-30T18:17:44.684Z,100765.38
2022-07-30T18:20:13.093Z,100758.06
2022-07-30T18:22:41.999Z,100761.91
2022-07-30T18:25:17.980Z,100765.22
2022-07-30T18:27:47.397Z,100767.75
2022-07-30T18:30:15.327Z,100770.78
2022-07-30T18:32:42.847Z,100774.16
2022-07-30T18:35:14.410Z,100782.63
2022-07-30T18:37:44.644Z,100776.66
2022-07-30T18:40:13.649Z,100774.59
2022-07-30T18:42:41.393Z,100786.13
2022-07-30T18:45:13.631Z,100782.06
2022-07-30T18:47:41.284Z,100789.41
2022-07-30T18:50:09.863Z,100796.53
2022-07-30T18:52:37.485Z,100792.78
2022-07-30T18:55:08.216Z,100793.84
2022-07-30T18:57:36.053Z,100794.94
2022-07-30T19:00:04.562Z,100800.41
2022-07-30T19:02:32.159Z,100805.84
2022-07-30T19:04:59.770Z,100797.94
2022-07-30T19:07:27.309Z,100811.03
2022-07-30T19:09:55.687Z,100805.34
2022-07-30T19:12:25.154Z,100802.88
2022-07-30T19:14:52.713Z,100822.78
2022-07-30T19:17:20.596Z,100821.16
2022-07-30T19:20:10.013Z,100821.13
2022-07-30T19:22:37.665Z,100822.53
2022-07-30T19:25:06.046Z,100816.78
2022-07-30T19:27:34.937Z,100821.66
2022-07-30T19:30:03.686Z,100814.28
2022-07-30T19:32:31.454Z,100824.94
2022-07-30T19:34:59.051Z,100825.44
2022-07-30T19:37:26.565Z,100834.09
2022-07-30T19:40:05.398Z,100835.63
2022-07-30T19:42:35.344Z,100837.44
2022-07-30T19:45:04.276Z,100847.97
2022-07-30T19:47:39.868Z,100855.34
2022-07-30T19:50:11.311Z,100859.84
2022-07-30T19:52:39.649Z,100856.56
2022-07-30T19:57:57.512Z,100862.22
2022-07-30T20:00:25.604Z,100864.41
2022-07-30T20:02:53.520Z,100864.72
2022-07-30T20:05:24.676Z,100865.41
2022-07-30T20:07:52.690Z,100855.41
2022-07-30T20:10:20.349Z,100855.59
2022-07-30T20:12:49.592Z,100866.44
2022-07-30T20:15:19.224Z,100871.84
2022-07-30T20:17:46.886Z,100866.22
2022-07-30T20:20:14.788Z,100873.41
2022-07-30T20:22:42.345Z,100872.88
2022-07-30T20:25:11.527Z,100870.00
2022-07-30T20:27:41.285Z,100867.22
2022-07-30T20:30:11.884Z,100863.03
2022-07-30T20:32:46.433Z,100865.75
2022-07-30T20:35:14.442Z,100866.41
2022-07-30T20:37:55.504Z,100868.63
2022-07-30T20:40:26.657Z,100861.75
2022-07-30T20:43:15.475Z,100860.72
2022-07-30T20:45:43.091Z,100857.13
2022-07-30T20:48:17.416Z,100859.03
2022-07-30T20:50:53.372Z,100851.09
2022-07-30T20:53:23.062Z,100861.19
2022-07-30T20:55:50.867Z,100859.00
2022-07-30T20:58:19.640Z,100855.50
2022-07-30T21:00:49.874Z,100856.91
2022-07-30T21:03:37.364Z,100855.75
2022-07-30T21:06:05.274Z,100858.50
2022-07-30T21:08:34.448Z,100858.19
2022-07-30T21:11:03.194Z,100849.25
2022-07-30T21:13:30.779Z,100854.69
2022-07-30T21:16:02.419Z,100852.69
2022-07-30T21:18:30.881Z,100859.25
2022-07-30T21:21:00.644Z,100862.78
2022-07-30T21:23:28.445Z,100857.88
2022-07-30T21:26:00.669Z,100866.34
2022-07-30T21:28:29.712Z,100858.16
2022-07-30T21:31:03.380Z,100859.53
2022-07-30T21:33:31.688Z,100862.47
2022-07-30T21:36:00.939Z,100864.59
2022-07-30T21:38:28.757Z,100867.91
2022-07-30T21:40:58.409Z,100867.84
2022-07-30T21:43:29.582Z,100870.22
2022-07-30T21:45:58.027Z,100867.25
2022-07-30T21:48:27.941Z,100867.81
2022-07-30T21:50:56.683Z,100879.19
2022-07-30T21:53:29.963Z,100881.78
2022-07-30T21:56:13.081Z,100883.78
2022-07-30T21:58:40.860Z,100890.69
2022-07-30T22:01:17.528Z,100883.97
2022-07-30T22:06:33.901Z,100897.19
2022-07-30T22:09:08.555Z,100896.41
2022-07-30T22:11:46.567Z,100893.25
2022-07-30T22:14:14.283Z,100896.47
2022-07-30T22:16:46.246Z,100892.78
2022-07-30T22:19:14.665Z,100892.19
2022-07-30T22:21:42.749Z,100891.44
2022-07-30T22:24:29.451Z,100886.63
2022-07-30T22:27:00.070Z,100890.41
2022-07-30T22:29:33.702Z,100890.72
2022-07-30T22:32:03.001Z,100886.59
2022-07-30T22:34:31.046Z,100897.25
2022-07-30T22:36:58.602Z,100888.13
2022-07-30T22:39:32.292Z,100893.63
2022-07-30T22:42:16.182Z,100887.66
2022-07-30T22:44:46.023Z,100895.63
2022-07-30T22:47:50.667Z,100893.50
2022-07-30T22:50:23.992Z,100889.00
2022-07-30T22:53:56.863Z,100900.34
2022-07-30T22:56:14.078Z,100898.47
2022-07-30T22:58:48.783Z,100897.38
2022-07-30T23:01:28.455Z,100886.66
2022-07-30T23:04:19.421Z,100894.44
2022-07-30T23:06:58.161Z,100893.63
2022-07-30T23:09:52.136Z,100885.28
2022-07-30T23:12:15.409Z,100855.47
2022-07-30T23:12:32.449Z,100883.97
2022-07-30T23:12:49.470Z,100883.03
2022-07-30T23:15:34.975Z,100895.13
2022-07-30T23:19:07.192Z,100893.00
2022-07-30T23:21:42.946Z,100887.19
2022-07-30T23:24:41.297Z,100887.19
2022-07-30T23:27:31.472Z,100886.81
2022-07-30T23:30:15.438Z,100892.94
2022-07-30T23:32:47.195Z,100882.44
2022-07-30T23:35:28.400Z,100889.47
2022-07-30T23:38:10.917Z,100892.41
2022-07-30T23:40:48.849Z,100887.72
2022-07-30T23:43:26.432Z,100878.75
2022-07-30T23:46:28.327Z,100883.53
2022-07-30T23:49:09.285Z,100881.19
2022-07-30T23:51:50.108Z,100883.66
2022-07-30T23:54:21.402Z,100882.25
2022-07-30T23:57:01.886Z,100889.47
2022-07-30T23:59:50.984Z,100884.97
